Terminal Aerodrome Forecast
Issued by NWS

Home | Current Version | Previous Version | Text Only | Print | Product List | Glossary On
Versions: 1 2 3 4 5 6 7 8 9 10 11 12 13 14 15
000
FTUS46 KMTR 270540
TAFSNS
TAF
KSNS 270540Z 2706/2806 29004KT P6SM SCT015
     FM270900 28003KT P6SM OVC015
     FM271700 28005KT P6SM SCT020
     FM272000 28012KT P6SM FEW025
     FM280200 28009KT P6SM BKN018=

USA.gov is the U.S. government's official web portal to all federal, state and local government web resources and services.